Time;durP1;ratioP1;P1;durP2;ratioP2;P2;SDS_P1;SDS_P2;PMS_P1;PMS_P2;Temp;Humidity;BMP_temperature;BMP_pressure;BME280_temperature;BME280_humidity;BME280_pressure;Samples;Min_cycle;Max_cycle;Signal;HPM_P1;HPM_P2
2023/06/15 00:01:29;;;;;;;;;;;14.70;99.90;;;;;;5000884;28;20332;-79
2023/06/15 00:03:55;;;;;;;;;;;14.70;99.90;;;;;;5009436;28;19913;-78
2023/06/15 00:06:21;;;;;;;;;;;14.70;99.90;;;;;;4997382;28;19960;-81
2023/06/15 00:08:47;;;;;;;;;;;14.60;99.90;;;;;;4997525;28;19956;-78
2023/06/15 00:11:13;;;;;;;;;;;14.50;99.90;;;;;;5004765;28;20315;-78
2023/06/15 00:13:39;;;;;;;;;;;14.30;99.90;;;;;;4989457;28;19958;-79
2023/06/15 00:16:06;;;;;;;;;;;14.30;99.90;;;;;;5006729;28;19909;-79
2023/06/15 00:18:37;;;;;;;;;;;14.20;99.90;;;;;;4990240;28;19910;-79
2023/06/15 00:21:03;;;;;;;;;;;14.20;99.90;;;;;;5006511;28;19909;-79
2023/06/15 00:23:29;;;;;;;;;;;14.20;99.90;;;;;;4998259;28;19913;-79
2023/06/15 00:25:55;;;;;;;;;;;14.20;99.90;;;;;;4999656;28;19913;-79
2023/06/15 00:28:21;;;;;;;;;;;14.20;99.90;;;;;;4991067;28;19910;-79
2023/06/15 00:30:47;;;;;;;;;;;14.20;99.90;;;;;;4982351;28;19972;-79
2023/06/15 00:33:13;;;;;;;;;;;14.20;99.90;;;;;;5007173;28;19950;-79
2023/06/15 00:35:39;;;;;;;;;;;14.30;99.90;;;;;;5002203;28;19949;-78
2023/06/15 00:38:05;;;;;;;;;;;14.30;99.90;;;;;;4997685;28;19918;-78
2023/06/15 00:40:31;;;;;;;;;;;14.20;99.90;;;;;;4993843;28;19909;-78
2023/06/15 00:42:57;;;;;;;;;;;14.20;99.90;;;;;;4991117;28;20442;-79
2023/06/15 00:45:23;;;;;;;;;;;14.20;99.90;;;;;;4991321;28;20008;-81
2023/06/15 00:47:50;;;;;;;;;;;14.20;99.90;;;;;;5005684;28;19914;-79
2023/06/15 00:50:18;;;;;;;;;;;14.20;99.90;;;;;;5005837;28;19916;-78
2023/06/15 00:52:45;;;;;;;;;;;14.20;99.90;;;;;;4989177;28;20681;-78
2023/06/15 00:55:13;;;;;;;;;;;14.10;99.90;;;;;;5006194;28;20385;-79
2023/06/15 00:57:44;;;;;;;;;;;14.10;99.90;;;;;;4989684;28;19917;-78
2023/06/15 01:00:14;;;;;;;;;;;14.00;99.90;;;;;;5006047;28;19929;-78
2023/06/15 01:02:40;;;;;;;;;;;14.00;99.90;;;;;;4989800;28;19916;-79
2023/06/15 01:05:10;;;;;;;;;;;13.90;99.90;;;;;;5007764;28;19918;-78
2023/06/15 01:07:40;;;;;;;;;;;13.80;99.90;;;;;;5006620;28;19914;-78
2023/06/15 01:10:11;;;;;;;;;;;13.80;99.90;;;;;;4989861;28;19914;-80
2023/06/15 01:12:40;;;;;;;;;;;13.70;99.90;;;;;;4994366;28;19925;-78
2023/06/15 01:15:07;;;;;;;;;;;13.60;99.90;;;;;;5005182;28;19910;-78
2023/06/15 01:17:33;;;;;;;;;;;13.60;1.00;;;;;;4988284;28;19917;-79
2023/06/15 01:20:05;;;;;;;;;;;13.60;1.00;;;;;;4988001;28;20366;-78
2023/06/15 01:22:36;;;;;;;;;;;13.50;1.00;;;;;;4989553;28;20278;-79
2023/06/15 01:25:08;;;;;;;;;;;13.50;1.00;;;;;;4992813;28;19914;-78
2023/06/15 01:27:34;;;;;;;;;;;13.50;1.00;;;;;;4989295;28;19921;-79
2023/06/15 01:30:01;;;;;;;;;;;13.50;1.00;;;;;;4991175;28;19914;-79
2023/06/15 01:32:28;;;;;;;;;;;13.50;1.00;;;;;;4989075;28;20369;-81
2023/06/15 01:34:54;;;;;;;;;;;13.40;1.00;;;;;;4991009;28;20350;-78
2023/06/15 01:37:20;;;;;;;;;;;13.30;1.00;;;;;;5005979;28;19922;-79
2023/06/15 01:39:46;;;;;;;;;;;13.20;1.00;;;;;;4992150;28;19910;-82
2023/06/15 01:42:12;;;;;;;;;;;13.20;1.00;;;;;;5005993;28;20355;-79
2023/06/15 01:44:39;;;;;;;;;;;13.30;1.00;;;;;;4990127;28;19910;-80
2023/06/15 01:47:09;;;;;;;;;;;13.40;1.00;;;;;;4994889;28;20283;-80
2023/06/15 01:49:36;;;;;;;;;;;13.60;1.00;;;;;;4987653;28;19916;-80
2023/06/15 01:52:02;;;;;;;;;;;13.80;1.00;;;;;;4987593;28;19914;-79
2023/06/15 01:54:28;;;;;;;;;;;13.80;1.00;;;;;;5005968;28;19921;-82
2023/06/15 01:56:54;;;;;;;;;;;13.80;1.00;;;;;;4990090;28;19906;-79
2023/06/15 01:59:20;;;;;;;;;;;13.80;1.00;;;;;;5005345;28;19910;-79
2023/06/15 02:01:46;;;;;;;;;;;13.70;1.00;;;;;;4994935;28;20282;-80
2023/06/15 02:04:12;;;;;;;;;;;13.60;1.00;;;;;;4994212;28;19996;-79
2023/06/15 02:06:38;;;;;;;;;;;13.50;1.00;;;;;;4977072;28;19925;-79
2023/06/15 02:09:05;;;;;;;;;;;13.40;1.00;;;;;;4992739;28;19910;-80
2023/06/15 02:11:30;;;;;;;;;;;13.30;1.00;;;;;;5005050;28;19917;-81
2023/06/15 02:13:59;;;;;;;;;;;13.30;1.00;;;;;;4991155;28;19917;-79
2023/06/15 02:16:27;;;;;;;;;;;13.30;1.00;;;;;;4975537;28;19914;-79
2023/06/15 02:18:53;;;;;;;;;;;13.30;1.00;;;;;;5003167;28;20296;-79
2023/06/15 02:21:19;;;;;;;;;;;13.30;1.00;;;;;;4986783;28;19917;-79
2023/06/15 02:23:46;;;;;;;;;;;13.20;1.00;;;;;;5003001;28;19913;-79
2023/06/15 02:26:12;;;;;;;;;;;13.30;1.00;;;;;;4989870;28;19936;-80
2023/06/15 02:28:38;;;;;;;;;;;13.20;1.00;;;;;;5003574;28;19910;-80
2023/06/15 02:31:04;;;;;;;;;;;13.20;1.00;;;;;;4986749;28;19910;-80
2023/06/15 02:33:32;;;;;;;;;;;13.20;1.00;;;;;;5004445;28;20347;-80
2023/06/15 02:35:58;;;;;;;;;;;13.20;1.00;;;;;;4990064;28;20363;-79
2023/06/15 02:38:26;;;;;;;;;;;13.20;1.00;;;;;;4989033;28;19918;-80
2023/06/15 02:40:52;;;;;;;;;;;13.10;1.00;;;;;;5003732;28;19912;-79
2023/06/15 02:43:21;;;;;;;;;;;13.10;1.00;;;;;;4988368;28;19917;-80
2023/06/15 02:45:47;;;;;;;;;;;13.10;1.00;;;;;;4991739;28;20289;-80
2023/06/15 02:48:14;;;;;;;;;;;13.10;1.00;;;;;;4994627;28;19960;-79
2023/06/15 02:50:42;;;;;;;;;;;13.00;1.00;;;;;;4993231;28;20358;-80
2023/06/15 02:53:17;;;;;;;;;;;13.00;1.00;;;;;;5004256;28;19914;-79
2023/06/15 02:55:45;;;;;;;;;;;13.00;1.00;;;;;;4989277;28;20279;-79
2023/06/15 02:58:13;;;;;;;;;;;12.90;1.00;;;;;;4988251;28;19917;-79
2023/06/15 03:00:51;;;;;;;;;;;12.90;1.00;;;;;;4988517;28;19932;-80
2023/06/15 03:03:28;;;;;;;;;;;12.80;1.00;;;;;;4983848;28;19909;-80
2023/06/15 03:05:56;;;;;;;;;;;12.70;1.00;;;;;;4986977;28;19929;-79
2023/06/15 03:08:23;;;;;;;;;;;12.80;1.00;;;;;;4996802;28;20260;-80
2023/06/15 03:10:56;;;;;;;;;;;12.80;1.00;;;;;;4988116;28;19913;-79
2023/06/15 03:13:22;;;;;;;;;;;12.80;1.00;;;;;;5011622;28;19969;-78
2023/06/15 03:15:49;;;;;;;;;;;12.80;1.00;;;;;;5005638;28;19910;-80
2023/06/15 03:18:16;;;;;;;;;;;12.80;1.00;;;;;;4999432;28;19906;-80
2023/06/15 03:20:43;;;;;;;;;;;12.70;1.00;;;;;;5004146;28;19910;-80
2023/06/15 03:23:13;;;;;;;;;;;12.70;1.00;;;;;;5007104;28;19909;-80
2023/06/15 03:25:39;;;;;;;;;;;12.70;1.00;;;;;;5003357;28;19914;-79
2023/06/15 03:28:05;;;;;;;;;;;12.60;1.00;;;;;;4988872;28;19918;-80
2023/06/15 03:30:35;;;;;;;;;;;12.70;1.00;;;;;;4990046;28;20358;-81
2023/06/15 03:33:02;;;;;;;;;;;12.70;1.00;;;;;;4989919;28;19914;-80
2023/06/15 03:35:31;;;;;;;;;;;12.70;1.00;;;;;;4989450;28;19910;-80
2023/06/15 03:37:58;;;;;;;;;;;12.80;1.00;;;;;;5013695;28;19922;-80
2023/06/15 03:40:24;;;;;;;;;;;12.80;1.00;;;;;;5002913;28;19917;-80
2023/06/15 03:42:51;;;;;;;;;;;12.80;1.00;;;;;;4974034;28;19910;-79
2023/06/15 03:45:20;;;;;;;;;;;12.80;1.00;;;;;;4989498;28;20267;-79
2023/06/15 03:47:49;;;;;;;;;;;12.80;1.00;;;;;;4991769;28;20295;-79
2023/06/15 03:50:15;;;;;;;;;;;12.90;1.00;;;;;;4996467;28;19914;-79
2023/06/15 03:52:42;;;;;;;;;;;12.90;1.00;;;;;;5010472;28;19909;-80
2023/06/15 03:55:08;;;;;;;;;;;13.00;1.00;;;;;;4996771;28;20051;-79
2023/06/15 03:57:34;;;;;;;;;;;13.00;1.00;;;;;;4990092;28;19910;-82
2023/06/15 04:00:01;;;;;;;;;;;13.10;1.00;;;;;;4981985;28;19917;-79
2023/06/15 04:02:27;;;;;;;;;;;13.20;1.00;;;;;;4977626;28;19917;-79
2023/06/15 04:04:54;;;;;;;;;;;13.20;1.00;;;;;;5006254;28;19924;-77
2023/06/15 04:07:20;;;;;;;;;;;13.20;1.00;;;;;;5005330;28;19917;-76
2023/06/15 04:09:46;;;;;;;;;;;13.30;1.00;;;;;;5005866;28;19910;-79
2023/06/15 04:12:12;;;;;;;;;;;13.30;1.00;;;;;;4982965;28;19910;-77
2023/06/15 04:14:38;;;;;;;;;;;13.30;1.00;;;;;;5008753;28;20417;-77
2023/06/15 04:17:05;;;;;;;;;;;13.40;1.00;;;;;;5001444;28;19909;-78
2023/06/15 04:19:31;;;;;;;;;;;13.70;1.00;;;;;;4986135;28;19917;-78
2023/06/15 04:21:57;;;;;;;;;;;14.30;1.00;;;;;;4985751;28;20842;-77
2023/06/15 04:24:23;;;;;;;;;;;14.90;1.00;;;;;;4992975;28;19910;-77
2023/06/15 04:26:50;;;;;;;;;;;15.30;1.00;;;;;;4994935;28;20279;-77
2023/06/15 04:29:18;;;;;;;;;;;15.50;99.90;;;;;;5009687;28;20382;-77
2023/06/15 04:31:46;;;;;;;;;;;15.80;99.90;;;;;;5006244;28;19916;-77
2023/06/15 04:34:15;;;;;;;;;;;15.90;99.90;;;;;;5005449;28;19917;-77
2023/06/15 04:36:42;;;;;;;;;;;16.20;99.90;;;;;;5006809;28;19925;-78
2023/06/15 04:39:08;;;;;;;;;;;16.20;99.90;;;;;;5006225;28;19913;-78
2023/06/15 04:41:35;;;;;;;;;;;16.40;99.90;;;;;;4975524;28;20331;-81
2023/06/15 04:44:05;;;;;;;;;;;16.50;99.90;;;;;;5006474;28;19917;-78
2023/06/15 04:46:32;;;;;;;;;;;16.60;99.90;;;;;;5015518;28;19913;-79
2023/06/15 04:49:00;;;;;;;;;;;16.70;99.90;;;;;;5014388;28;20394;-79
2023/06/15 04:51:26;;;;;;;;;;;16.80;99.90;;;;;;4989999;28;20260;-79
2023/06/15 04:53:52;;;;;;;;;;;17.10;99.90;;;;;;4990170;28;20283;-78
2023/06/15 04:56:18;;;;;;;;;;;17.70;99.90;;;;;;4987863;28;19993;-78
2023/06/15 04:58:45;;;;;;;;;;;17.50;99.90;;;;;;4993574;28;19916;-78
2023/06/15 05:01:12;;;;;;;;;;;17.40;99.90;;;;;;4993030;28;20277;-79
2023/06/15 05:03:38;;;;;;;;;;;17.60;99.90;;;;;;4990335;28;19953;-82
2023/06/15 05:06:04;;;;;;;;;;;17.80;99.90;;;;;;5008545;28;19916;-77
2023/06/15 05:08:33;;;;;;;;;;;17.80;99.90;;;;;;5005962;28;19921;-77
2023/06/15 05:11:00;;;;;;;;;;;18.20;99.90;;;;;;5009244;28;19914;-76
2023/06/15 05:13:27;;;;;;;;;;;18.40;99.90;;;;;;5005631;28;19905;-77
2023/06/15 05:15:53;;;;;;;;;;;18.50;99.90;;;;;;4990424;28;20373;-79
2023/06/15 05:18:23;;;;;;;;;;;18.60;99.90;;;;;;5006310;28;20351;-79
2023/06/15 05:20:50;;;;;;;;;;;18.80;99.90;;;;;;4997358;28;20277;-79
2023/06/15 05:23:18;;;;;;;;;;;19.00;99.90;;;;;;5005058;28;19913;-79
2023/06/15 05:25:44;;;;;;;;;;;19.50;99.90;;;;;;5010819;28;19914;-79
2023/06/15 05:28:11;;;;;;;;;;;20.00;99.90;;;;;;4991977;28;19917;-80
2023/06/15 05:30:39;;;;;;;;;;;20.50;99.90;;;;;;4982709;28;19910;-80
2023/06/15 05:33:05;;;;;;;;;;;21.00;99.90;;;;;;4994882;28;20296;-80
2023/06/15 05:35:31;;;;;;;;;;;21.00;99.90;;;;;;4982533;28;20335;-79
2023/06/15 05:37:57;;;;;;;;;;;21.20;99.90;;;;;;4988808;28;19918;-80
2023/06/15 05:40:24;;;;;;;;;;;21.10;99.90;;;;;;5005020;28;19913;-80
2023/06/15 05:42:50;;;;;;;;;;;21.00;99.90;;;;;;5006495;28;19917;-80
2023/06/15 05:45:17;;;;;;;;;;;21.10;99.90;;;;;;5006895;28;20024;-79
2023/06/15 05:47:44;;;;;;;;;;;21.20;99.90;;;;;;5005966;28;19917;-78
2023/06/15 05:50:10;;;;;;;;;;;21.30;99.90;;;;;;5005596;28;19910;-78
2023/06/15 05:52:36;;;;;;;;;;;21.20;99.90;;;;;;4976127;28;19972;-77
2023/06/15 05:55:02;;;;;;;;;;;21.50;99.90;;;;;;4980566;28;19910;-79
2023/06/15 05:57:30;;;;;;;;;;;22.20;99.90;;;;;;5005996;28;19905;-80
2023/06/15 05:59:56;;;;;;;;;;;22.20;99.90;;;;;;4988582;28;20248;-76
2023/06/15 06:02:23;;;;;;;;;;;22.60;99.90;;;;;;5004329;28;19925;-77
2023/06/15 06:04:50;;;;;;;;;;;22.00;99.90;;;;;;5004082;28;19936;-79
2023/06/15 06:07:16;;;;;;;;;;;22.40;99.90;;;;;;5019745;28;19924;-83
2023/06/15 06:09:42;;;;;;;;;;;22.00;99.90;;;;;;5010432;28;19973;-87
2023/06/15 06:12:12;;;;;;;;;;;22.10;99.90;;;;;;4999391;28;19926;-84
2023/06/15 06:14:38;;;;;;;;;;;23.00;99.90;;;;;;4992293;28;19921;-89
2023/06/15 06:17:05;;;;;;;;;;;23.30;99.90;;;;;;5008507;28;19906;-83
2023/06/15 06:19:31;;;;;;;;;;;24.20;99.90;;;;;;5006833;28;19909;-84
2023/06/15 06:21:58;;;;;;;;;;;25.00;99.90;;;;;;5003876;28;20381;-84
2023/06/15 06:24:24;;;;;;;;;;;23.80;99.90;;;;;;4997014;28;19917;-85
2023/06/15 06:26:50;;;;;;;;;;;23.70;99.90;;;;;;5007570;28;19910;-83
2023/06/15 06:29:16;;;;;;;;;;;24.10;99.90;;;;;;4984497;28;20343;-84
2023/06/15 06:31:42;;;;;;;;;;;23.70;99.90;;;;;;4998224;28;20438;-84
2023/06/15 06:34:09;;;;;;;;;;;24.10;99.90;;;;;;4991094;28;20283;-87
2023/06/15 06:36:35;;;;;;;;;;;24.50;99.90;;;;;;4992158;28;19922;-85
2023/06/15 06:39:01;;;;;;;;;;;24.80;99.90;;;;;;5007699;28;19910;-85
2023/06/15 06:41:27;;;;;;;;;;;25.20;99.90;;;;;;5008127;28;19910;-83
2023/06/15 06:43:52;;;;;;;;;;;25.80;98.70;;;;;;4993337;28;20342;-83
2023/06/15 06:46:18;;;;;;;;;;;25.90;94.90;;;;;;4994093;28;20011;-83
2023/06/15 06:48:45;;;;;;;;;;;25.90;90.50;;;;;;5007902;28;19917;-80
2023/06/15 06:51:10;;;;;;;;;;;25.30;95.10;;;;;;5012081;28;20358;-83
2023/06/15 06:53:40;;;;;;;;;;;24.60;99.90;;;;;;4996208;28;19949;-85
2023/06/15 06:56:06;;;;;;;;;;;24.00;99.90;;;;;;4990414;28;20279;-86
2023/06/15 06:58:32;;;;;;;;;;;23.90;99.90;;;;;;4991982;28;19909;-83
2023/06/15 07:00:57;;;;;;;;;;;23.90;99.90;;;;;;5009327;28;19914;-84
2023/06/15 07:03:24;;;;;;;;;;;25.10;99.90;;;;;;5007656;28;19910;-83
2023/06/15 07:05:50;;;;;;;;;;;24.40;99.90;;;;;;4979957;28;19929;-89
2023/06/15 07:08:16;;;;;;;;;;;24.40;99.90;;;;;;4994990;28;20332;-84
2023/06/15 07:10:42;;;;;;;;;;;25.30;99.90;;;;;;4981302;28;20323;-83
2023/06/15 07:13:08;;;;;;;;;;;25.40;95.10;;;;;;5006396;28;20232;-85
2023/06/15 07:15:34;;;;;;;;;;;24.70;99.90;;;;;;4991685;28;19916;-83
2023/06/15 07:18:00;;;;;;;;;;;25.60;95.30;;;;;;5007809;28;19960;-85
2023/06/15 07:20:26;;;;;;;;;;;26.30;80.60;;;;;;4991165;28;20015;-84
2023/06/15 07:22:52;;;;;;;;;;;27.30;73.00;;;;;;4997634;28;20374;-87
2023/06/15 07:25:18;;;;;;;;;;;27.40;48.70;;;;;;5004491;28;19968;-85
2023/06/15 07:27:44;;;;;;;;;;;26.90;53.60;;;;;;4993164;28;19921;-84
2023/06/15 07:30:10;;;;;;;;;;;26.10;65.00;;;;;;4973141;28;20355;-84
2023/06/15 07:32:36;;;;;;;;;;;26.10;81.50;;;;;;5001853;28;19960;-85
2023/06/15 07:35:02;;;;;;;;;;;27.40;52.90;;;;;;5009455;28;20398;-85
2023/06/15 07:37:28;;;;;;;;;;;28.30;45.00;;;;;;5011217;28;19925;-85
2023/06/15 07:39:54;;;;;;;;;;;29.00;35.90;;;;;;5008313;28;19910;-85
2023/06/15 07:42:20;;;;;;;;;;;27.80;45.30;;;;;;4990789;28;19953;-85
2023/06/15 07:44:46;;;;;;;;;;;27.20;54.70;;;;;;5002107;28;19964;-86
2023/06/15 07:47:12;;;;;;;;;;;26.50;69.50;;;;;;5003653;28;19968;-87
2023/06/15 07:49:38;;;;;;;;;;;24.90;90.10;;;;;;4998420;28;19967;-85
2023/06/15 07:52:04;;;;;;;;;;;25.80;84.30;;;;;;5002744;28;19910;-86
2023/06/15 07:54:30;;;;;;;;;;;26.20;77.20;;;;;;4983163;28;19913;-86
2023/06/15 07:56:57;;;;;;;;;;;26.60;67.60;;;;;;4995522;28;19949;-85
2023/06/15 07:59:23;;;;;;;;;;;25.40;83.70;;;;;;5009616;28;19917;-84
2023/06/15 08:01:49;;;;;;;;;;;25.60;91.30;;;;;;4996533;28;19909;-84
2023/06/15 08:04:15;;;;;;;;;;;26.60;68.80;;;;;;5010179;28;19906;-84
2023/06/15 08:06:41;;;;;;;;;;;26.40;62.70;;;;;;5013715;28;19929;-84
2023/06/15 08:09:07;;;;;;;;;;;25.80;80.00;;;;;;5002776;28;19914;-81
2023/06/15 08:11:34;;;;;;;;;;;25.90;74.70;;;;;;5000379;28;19910;-83
2023/06/15 08:14:00;;;;;;;;;;;26.50;67.60;;;;;;4999173;28;19914;-82
2023/06/15 08:16:26;;;;;;;;;;;25.20;78.30;;;;;;4984991;28;20244;-79
2023/06/15 08:18:52;;;;;;;;;;;25.10;85.00;;;;;;4994661;28;20047;-85
2023/06/15 08:21:18;;;;;;;;;;;25.20;90.30;;;;;;4991825;28;20286;-82
2023/06/15 08:23:44;;;;;;;;;;;25.90;86.20;;;;;;4992025;28;19917;-84
2023/06/15 08:26:10;;;;;;;;;;;27.30;66.40;;;;;;5008998;28;20375;-81
2023/06/15 08:28:36;;;;;;;;;;;27.30;42.90;;;;;;4991793;28;19912;-80
2023/06/15 08:31:03;;;;;;;;;;;26.60;42.70;;;;;;4974690;28;19910;-85
2023/06/15 08:33:29;;;;;;;;;;;26.90;57.10;;;;;;4988248;28;19913;-81
2023/06/15 08:35:56;;;;;;;;;;;26.50;49.70;;;;;;4992585;28;19913;-84
2023/06/15 08:38:21;;;;;;;;;;;26.50;45.20;;;;;;5007354;28;19925;-82
2023/06/15 08:40:47;;;;;;;;;;;27.30;35.30;;;;;;4993478;28;19952;-81
2023/06/15 08:43:17;;;;;;;;;;;27.20;30.50;;;;;;5011214;28;19910;-82
2023/06/15 08:45:43;;;;;;;;;;;27.30;28.10;;;;;;5002665;28;20386;-80
2023/06/15 08:48:10;;;;;;;;;;;27.40;28.80;;;;;;4993216;28;19917;-81
2023/06/15 08:50:37;;;;;;;;;;;26.40;35.70;;;;;;5006831;28;19910;-78
2023/06/15 08:53:04;;;;;;;;;;;25.50;50.10;;;;;;5019783;28;19909;-82
2023/06/15 08:55:31;;;;;;;;;;;26.00;54.80;;;;;;5009251;28;20377;-80
2023/06/15 08:57:59;;;;;;;;;;;28.00;33.80;;;;;;4994070;28;19929;-81
2023/06/15 09:00:25;;;;;;;;;;;28.50;22.20;;;;;;4989159;28;19909;-81
2023/06/15 09:02:53;;;;;;;;;;;27.70;22.30;;;;;;4990959;28;19909;-89
2023/06/15 09:05:19;;;;;;;;;;;27.00;31.30;;;;;;4991199;28;20418;-87
2023/06/15 09:07:45;;;;;;;;;;;27.50;30.60;;;;;;4990175;28;19914;-83
2023/06/15 09:10:15;;;;;;;;;;;27.70;27.40;;;;;;4998225;28;19906;-84
2023/06/15 09:12:43;;;;;;;;;;;27.60;30.10;;;;;;4990419;28;19919;-88
2023/06/15 09:15:12;;;;;;;;;;;26.70;37.30;;;;;;4991191;28;19913;-87
2023/06/15 09:17:39;;;;;;;;;;;27.90;29.30;;;;;;5007547;28;19910;-80
2023/06/15 09:20:07;;;;;;;;;;;28.30;20.60;;;;;;4992582;28;19909;-86
2023/06/15 09:22:38;;;;;;;;;;;28.30;17.10;;;;;;4993367;28;20366;-82
2023/06/15 09:25:10;;;;;;;;;;;28.50;16.30;;;;;;4992246;28;19940;-81
2023/06/15 09:27:36;;;;;;;;;;;28.10;15.10;;;;;;5002480;28;19917;-83
2023/06/15 09:30:03;;;;;;;;;;;27.40;9.00;;;;;;4999196;28;19910;-82
2023/06/15 09:32:30;;;;;;;;;;;27.00;16.80;;;;;;4981905;28;19914;-85
2023/06/15 09:34:57;;;;;;;;;;;27.40;13.80;;;;;;4997340;28;20283;-85
2023/06/15 09:37:29;;;;;;;;;;;27.40;12.70;;;;;;5008556;28;19929;-87
2023/06/15 09:39:56;;;;;;;;;;;27.60;12.10;;;;;;5011386;28;19910;-84
2023/06/15 09:42:26;;;;;;;;;;;28.20;4.30;;;;;;4993304;28;19906;-87
2023/06/15 09:45:03;;;;;;;;;;;28.10;1.00;;;;;;4992611;28;20260;-82
2023/06/15 09:47:30;;;;;;;;;;;27.40;3.40;;;;;;4999203;28;19909;-84
2023/06/15 09:49:56;;;;;;;;;;;26.20;13.70;;;;;;4980482;28;20378;-86
2023/06/15 09:52:22;;;;;;;;;;;27.00;21.10;;;;;;4990445;28;20319;-82
2023/06/15 09:54:48;;;;;;;;;;;27.90;7.70;;;;;;5006505;28;19914;-81
2023/06/15 09:57:18;;;;;;;;;;;27.60;12.90;;;;;;4988518;28;19961;-81
2023/06/15 09:59:45;;;;;;;;;;;26.80;17.50;;;;;;4985463;28;19937;-85
2023/06/15 10:02:11;;;;;;;;;;;26.90;23.50;;;;;;5002393;28;19909;-80
2023/06/15 10:04:40;;;;;;;;;;;26.90;15.30;;;;;;4995308;28;19906;-87
2023/06/15 10:07:10;;;;;;;;;;;27.40;14.50;;;;;;4993370;28;20355;-88
2023/06/15 10:09:40;;;;;;;;;;;27.90;10.20;;;;;;5018231;28;19920;-83
2023/06/15 10:12:13;;;;;;;;;;;27.50;13.80;;;;;;5016681;28;19910;-86
2023/06/15 10:14:45;;;;;;;;;;;27.40;13.80;;;;;;5000469;28;20363;-82
2023/06/15 10:17:13;;;;;;;;;;;27.00;13.40;;;;;;4991596;28;20278;-82
2023/06/15 10:19:43;;;;;;;;;;;26.20;23.20;;;;;;4995825;28;20282;-80
2023/06/15 10:22:18;;;;;;;;;;;26.10;35.20;;;;;;4989676;28;19914;-82
2023/06/15 10:24:45;;;;;;;;;;;26.10;32.60;;;;;;4991969;28;19933;-83
2023/06/15 10:27:11;;;;;;;;;;;25.30;39.00;;;;;;5004930;28;19921;-85
2023/06/15 10:29:37;;;;;;;;;;;24.70;50.60;;;;;;4987889;28;19961;-80
2023/06/15 10:32:08;;;;;;;;;;;23.80;61.20;;;;;;5003422;28;19905;-80
2023/06/15 10:34:39;;;;;;;;;;;24.00;67.80;;;;;;4996637;28;20274;-80
2023/06/15 10:37:12;;;;;;;;;;;24.50;54.70;;;;;;5006936;28;19925;-79
2023/06/15 10:39:44;;;;;;;;;;;25.10;49.10;;;;;;4986242;28;19910;-81
2023/06/15 10:42:15;;;;;;;;;;;25.30;32.90;;;;;;4992698;28;19910;-83
2023/06/15 10:44:41;;;;;;;;;;;25.60;34.70;;;;;;4985176;28;19909;-76
2023/06/15 10:47:08;;;;;;;;;;;26.10;35.30;;;;;;4992183;28;19972;-82
2023/06/15 10:49:35;;;;;;;;;;;26.00;38.10;;;;;;4993170;28;20283;-85
2023/06/15 10:52:01;;;;;;;;;;;26.10;37.70;;;;;;5005273;28;20359;-77
2023/06/15 10:54:28;;;;;;;;;;;25.80;36.60;;;;;;5008490;28;19910;-79
2023/06/15 10:56:55;;;;;;;;;;;25.90;31.30;;;;;;5010435;28;19909;-81
2023/06/15 10:59:41;;;;;;;;;;;25.70;37.40;;;;;;4992709;28;19917;-78
2023/06/15 11:02:31;;;;;;;;;;;26.20;31.90;;;;;;5001643;28;19910;-85
2023/06/15 11:05:01;;;;;;;;;;;25.40;42.10;;;;;;5007765;28;19913;-81
2023/06/15 11:07:56;;;;;;;;;;;25.80;31.50;;;;;;4994030;28;19918;-79
2023/06/15 11:10:26;;;;;;;;;;;25.90;31.60;;;;;;5010166;28;19917;-84
2023/06/15 11:13:02;;;;;;;;;;;25.60;36.40;;;;;;5008477;28;19914;-85
2023/06/15 11:15:33;;;;;;;;;;;25.70;33.00;;;;;;4991373;28;20379;-82
2023/06/15 11:18:00;;;;;;;;;;;25.80;30.80;;;;;;5003959;28;19922;-91
2023/06/15 11:20:46;;;;;;;;;;;25.90;36.40;;;;;;4990872;28;19928;-89
2023/06/15 11:23:19;;;;;;;;;;;26.30;28.10;;;;;;5011062;28;19921;-85
2023/06/15 11:25:46;;;;;;;;;;;26.10;28.90;;;;;;4999145;28;19925;-96
2023/06/15 11:28:17;;;;;;;;;;;26.00;26.20;;;;;;5000173;28;19929;-86
2023/06/15 11:30:43;;;;;;;;;;;26.10;20.10;;;;;;4996255;28;19910;-81
2023/06/15 11:33:13;;;;;;;;;;;26.00;22.50;;;;;;5000382;28;20262;-81
2023/06/15 11:35:39;;;;;;;;;;;26.00;24.30;;;;;;5002697;28;19920;-82
2023/06/15 11:38:07;;;;;;;;;;;26.20;26.30;;;;;;5010846;28;20259;-90
2023/06/15 11:40:33;;;;;;;;;;;26.70;20.50;;;;;;4996364;28;20370;-87
2023/06/15 11:43:00;;;;;;;;;;;26.50;15.90;;;;;;4995721;28;19910;-83
2023/06/15 11:45:26;;;;;;;;;;;26.40;15.80;;;;;;4995028;28;20279;-91
2023/06/15 11:47:52;;;;;;;;;;;26.10;14.80;;;;;;5010311;28;19936;-84
2023/06/15 11:50:19;;;;;;;;;;;25.90;18.70;;;;;;4992072;28;20291;-80
2023/06/15 11:52:46;;;;;;;;;;;26.10;17.70;;;;;;5006592;28;20024;-85
2023/06/15 11:55:13;;;;;;;;;;;26.20;14.60;;;;;;5018660;28;19917;-91
2023/06/15 11:57:41;;;;;;;;;;;26.30;10.40;;;;;;5000059;28;20291;-87
2023/06/15 12:00:10;;;;;;;;;;;26.30;10.10;;;;;;4995337;28;19913;-84
2023/06/15 12:02:41;;;;;;;;;;;26.40;6.30;;;;;;4995038;28;19910;-81
2023/06/15 12:05:10;;;;;;;;;;;26.20;7.90;;;;;;5000062;28;19914;-87
2023/06/15 12:07:38;;;;;;;;;;;25.70;10.10;;;;;;4996530;28;19925;-82
2023/06/15 12:10:05;;;;;;;;;;;25.80;9.60;;;;;;4996538;28;20271;-84
2023/06/15 12:12:32;;;;;;;;;;;26.10;12.20;;;;;;4996467;28;19910;-91
2023/06/15 12:14:59;;;;;;;;;;;26.30;14.40;;;;;;4994505;28;19913;-92
2023/06/15 12:17:26;;;;;;;;;;;25.80;8.80;;;;;;4995936;28;19910;-84
2023/06/15 12:19:57;;;;;;;;;;;26.10;15.00;;;;;;4991553;28;20271;-84
2023/06/15 12:22:31;;;;;;;;;;;26.30;6.80;;;;;;5008186;28;19909;-83
2023/06/15 12:24:58;;;;;;;;;;;26.20;6.20;;;;;;5010444;28;19917;-83
2023/06/15 12:27:24;;;;;;;;;;;26.20;3.90;;;;;;5010610;28;19925;-84
2023/06/15 12:29:53;;;;;;;;;;;26.10;3.80;;;;;;4998352;28;19909;-85
2023/06/15 12:32:23;;;;;;;;;;;26.30;1.30;;;;;;4995875;28;19920;-86
2023/06/15 12:34:50;;;;;;;;;;;26.50;4.90;;;;;;4998186;28;19925;-87
2023/06/15 12:37:16;;;;;;;;;;;27.30;1.00;;;;;;4996552;28;19925;-85
2023/06/15 12:39:43;;;;;;;;;;;27.60;1.00;;;;;;5008164;28;19917;-84
2023/06/15 12:42:09;;;;;;;;;;;27.30;1.00;;;;;;4996331;28;19910;-89
2023/06/15 12:44:35;;;;;;;;;;;27.00;1.00;;;;;;4991224;28;20401;-90
2023/06/15 12:47:02;;;;;;;;;;;27.10;1.00;;;;;;5006620;28;19921;-87
2023/06/15 12:49:27;;;;;;;;;;;27.20;1.00;;;;;;5005932;28;20359;-88
2023/06/15 12:51:54;;;;;;;;;;;26.90;1.00;;;;;;4992928;28;19949;-87
2023/06/15 12:54:20;;;;;;;;;;;26.70;1.00;;;;;;5009759;28;19909;-78
2023/06/15 12:56:46;;;;;;;;;;;26.50;1.00;;;;;;5010325;28;19913;-89
2023/06/15 12:59:12;;;;;;;;;;;26.20;1.00;;;;;;4997795;28;19910;-90
2023/06/15 13:01:38;;;;;;;;;;;26.60;2.10;;;;;;5004549;28;19940;-87
2023/06/15 13:04:04;;;;;;;;;;;27.10;6.50;;;;;;5031321;28;19901;-80
2023/06/15 13:06:30;;;;;;;;;;;27.60;2.60;;;;;;5015009;28;19928;-83
2023/06/15 13:08:56;;;;;;;;;;;27.20;4.70;;;;;;5014533;28;19976;-84
2023/06/15 13:11:22;;;;;;;;;;;27.00;5.20;;;;;;5017662;28;19917;-83
2023/06/15 13:13:48;;;;;;;;;;;26.50;7.00;;;;;;5000414;28;19916;-85
2023/06/15 13:16:14;;;;;;;;;;;26.10;9.30;;;;;;5001197;28;20004;-86
2023/06/15 13:18:40;;;;;;;;;;;25.90;10.20;;;;;;5004022;28;19917;-84
2023/06/15 13:21:06;;;;;;;;;;;25.90;7.00;;;;;;5002269;28;19914;-85
2023/06/15 13:23:32;;;;;;;;;;;26.20;6.70;;;;;;5015547;28;19909;-85
2023/06/15 13:25:58;;;;;;;;;;;26.50;1.30;;;;;;5003077;28;20397;-84
2023/06/15 13:28:24;;;;;;;;;;;26.50;1.00;;;;;;5018999;28;19916;-83
2023/06/15 13:30:50;;;;;;;;;;;26.60;1.00;;;;;;4991996;28;20012;-86
2023/06/15 13:33:17;;;;;;;;;;;26.70;1.00;;;;;;5008813;28;19914;-86
2023/06/15 13:35:43;;;;;;;;;;;26.60;3.80;;;;;;5013598;28;19912;-83
2023/06/15 13:38:09;;;;;;;;;;;27.30;2.10;;;;;;4994987;28;20417;-90
2023/06/15 13:40:35;;;;;;;;;;;27.70;1.00;;;;;;5007233;28;19910;-85
2023/06/15 13:43:01;;;;;;;;;;;27.80;1.00;;;;;;5012559;28;19909;-77
2023/06/15 13:45:27;;;;;;;;;;;27.80;1.00;;;;;;4994475;28;19932;-93
2023/06/15 13:47:54;;;;;;;;;;;27.00;1.00;;;;;;4996735;28;20392;-82
2023/06/15 13:50:20;;;;;;;;;;;26.60;1.00;;;;;;5001358;28;19921;-79
2023/06/15 13:52:48;;;;;;;;;;;26.50;1.00;;;;;;4990883;28;19909;-84
2023/06/15 13:55:14;;;;;;;;;;;26.50;1.00;;;;;;4993179;28;19916;-84
2023/06/15 13:57:40;;;;;;;;;;;26.60;1.00;;;;;;4995535;28;20401;-81
2023/06/15 14:00:09;;;;;;;;;;;26.80;1.00;;;;;;4989916;28;19917;-84
2023/06/15 14:02:40;;;;;;;;;;;26.70;1.00;;;;;;4993914;28;19924;-90
2023/06/15 14:05:09;;;;;;;;;;;26.80;1.00;;;;;;4996447;28;20263;-87
2023/06/15 14:07:37;;;;;;;;;;;26.90;1.00;;;;;;4999444;28;19921;-88
2023/06/15 14:10:03;;;;;;;;;;;27.30;1.00;;;;;;4995783;28;20275;-89
2023/06/15 14:12:29;;;;;;;;;;;27.80;1.00;;;;;;4995117;28;19909;-88
2023/06/15 14:14:55;;;;;;;;;;;27.80;1.00;;;;;;4997427;28;20370;-90
2023/06/15 14:17:21;;;;;;;;;;;27.80;1.00;;;;;;4990847;28;20017;-87
2023/06/15 14:19:47;;;;;;;;;;;27.80;1.00;;;;;;4996921;28;19910;-84
2023/06/15 14:22:13;;;;;;;;;;;28.00;1.00;;;;;;4989031;28;20274;-84